Abilene, Texas
Current Conditions -  °F | °C
As of 9:52 AM on Sunday 23 Nov 2014 (Local Time) from KABI Reporting Station
Clear Clear  
Wind Chill: 63°   Ceiling: Unl
Heat Index: 63°   Visibility: 10mi
Dew Point: 41°   Wind: 9mph
Humidity: 45%   Direction: 240°WSW
Pressure: 29.59"   Gusts: NA
Location:  32.45°N, 99.74°W
Report Text: KABI 231552Z 24008KT 10SM CLR 17/05 A2959 RMK AO2 SLP006 T01720050
Loading
Personal Weather Stations






























Interactive Weather Map New forecast layout! Learn more

10-Day Weather Forecast

Advertisements
Track Severe Weather on mobile